sensor_id;sensor_type;location;lat;lon;timestamp;P1;durP1;ratioP1;P2;durP2;ratioP2
75112;SDS011;63692;47.338;8.520;2023-12-20T07:32:00;5.53;;;3.80;;
75112;SDS011;63692;47.338;8.520;2023-12-20T07:36:53;6.70;;;3.30;;
75112;SDS011;63692;47.338;8.520;2023-12-20T07:39:19;5.05;;;3.15;;
75112;SDS011;63692;47.338;8.520;2023-12-20T07:41:45;4.88;;;3.38;;
75112;SDS011;63692;47.338;8.520;2023-12-20T07:44:10;5.47;;;3.17;;
75112;SDS011;63692;47.338;8.520;2023-12-20T07:49:05;5.30;;;2.90;;
75112;SDS011;63692;47.338;8.520;2023-12-20T07:51:30;4.45;;;3.10;;
75112;SDS011;63692;47.338;8.520;2023-12-20T07:56:23;5.35;;;3.03;;
75112;SDS011;63692;47.338;8.520;2023-12-20T08:13:40;5.25;;;2.83;;
75112;SDS011;63692;47.338;8.520;2023-12-20T08:16:06;4.82;;;3.10;;
75112;SDS011;63692;47.338;8.520;2023-12-20T08:18:32;4.22;;;2.70;;
75112;SDS011;63692;47.338;8.520;2023-12-20T08:23:28;5.22;;;3.10;;
75112;SDS011;63692;47.338;8.520;2023-12-20T08:25:53;4.82;;;2.45;;
75112;SDS011;63692;47.338;8.520;2023-12-20T08:28:19;4.70;;;2.83;;
75112;SDS011;63692;47.338;8.520;2023-12-20T08:30:44;4.03;;;2.60;;
75112;SDS011;63692;47.338;8.520;2023-12-20T08:33:10;8.23;;;5.75;;
75112;SDS011;63692;47.338;8.520;2023-12-20T08:35:38;6.22;;;2.70;;
75112;SDS011;63692;47.338;8.520;2023-12-20T08:38:05;3.75;;;2.13;;
75112;SDS011;63692;47.338;8.520;2023-12-20T08:40:30;5.75;;;2.35;;
75112;SDS011;63692;47.338;8.520;2023-12-20T08:42:56;3.10;;;2.00;;
75112;SDS011;63692;47.338;8.520;2023-12-20T08:45:22;4.13;;;2.03;;
75112;SDS011;63692;47.338;8.520;2023-12-20T08:47:47;4.45;;;2.30;;
75112;SDS011;63692;47.338;8.520;2023-12-20T08:50:13;3.78;;;2.13;;
75112;SDS011;63692;47.338;8.520;2023-12-20T08:52:40;3.90;;;2.50;;
75112;SDS011;63692;47.338;8.520;2023-12-20T08:55:05;4.95;;;2.50;;
75112;SDS011;63692;47.338;8.520;2023-12-20T08:57:31;5.20;;;2.90;;
75112;SDS011;63692;47.338;8.520;2023-12-20T08:59:58;4.63;;;3.10;;
75112;SDS011;63692;47.338;8.520;2023-12-20T09:02:24;6.30;;;3.20;;
75112;SDS011;63692;47.338;8.520;2023-12-20T09:04:49;4.55;;;2.95;;
75112;SDS011;63692;47.338;8.520;2023-12-20T09:07:25;5.43;;;2.83;;
75112;SDS011;63692;47.338;8.520;2023-12-20T09:09:51;5.18;;;3.35;;
75112;SDS011;63692;47.338;8.520;2023-12-20T09:12:20;8.07;;;3.53;;
75112;SDS011;63692;47.338;8.520;2023-12-20T09:14:49;5.95;;;2.92;;
75112;SDS011;63692;47.338;8.520;2023-12-20T09:17:16;4.90;;;2.92;;
75112;SDS011;63692;47.338;8.520;2023-12-20T09:19:43;5.70;;;2.72;;
75112;SDS011;63692;47.338;8.520;2023-12-20T09:22:09;4.68;;;2.67;;
75112;SDS011;63692;47.338;8.520;2023-12-20T09:24:35;5.22;;;3.17;;
75112;SDS011;63692;47.338;8.520;2023-12-20T09:27:01;5.15;;;2.97;;
75112;SDS011;63692;47.338;8.520;2023-12-20T09:29:27;3.85;;;2.60;;
75112;SDS011;63692;47.338;8.520;2023-12-20T09:31:54;5.03;;;2.92;;
75112;SDS011;63692;47.338;8.520;2023-12-20T09:34:19;4.55;;;2.65;;
75112;SDS011;63692;47.338;8.520;2023-12-20T09:36:46;4.82;;;2.78;;
75112;SDS011;63692;47.338;8.520;2023-12-20T09:39:15;5.38;;;3.05;;
75112;SDS011;63692;47.338;8.520;2023-12-20T09:44:15;5.93;;;3.13;;
75112;SDS011;63692;47.338;8.520;2023-12-20T09:46:43;8.43;;;3.35;;
75112;SDS011;63692;47.338;8.520;2023-12-20T09:49:10;6.55;;;3.10;;
75112;SDS011;63692;47.338;8.520;2023-12-20T09:51:37;6.95;;;4.10;;
75112;SDS011;63692;47.338;8.520;2023-12-20T09:54:04;5.95;;;3.20;;
75112;SDS011;63692;47.338;8.520;2023-12-20T09:56:30;5.10;;;3.58;;
75112;SDS011;63692;47.338;8.520;2023-12-20T09:58:56;6.03;;;3.33;;
75112;SDS011;63692;47.338;8.520;2023-12-20T10:01:23;4.90;;;3.40;;
75112;SDS011;63692;47.338;8.520;2023-12-20T10:03:48;5.32;;;3.33;;
75112;SDS011;63692;47.338;8.520;2023-12-20T10:06:16;4.60;;;2.97;;
75112;SDS011;63692;47.338;8.520;2023-12-20T10:08:42;5.13;;;3.00;;
75112;SDS011;63692;47.338;8.520;2023-12-20T10:11:07;5.03;;;3.35;;
75112;SDS011;63692;47.338;8.520;2023-12-20T10:13:33;4.85;;;2.90;;
75112;SDS011;63692;47.338;8.520;2023-12-20T10:15:59;4.70;;;3.00;;
75112;SDS011;63692;47.338;8.520;2023-12-20T10:18:25;4.85;;;2.97;;
75112;SDS011;63692;47.338;8.520;2023-12-20T10:20:53;4.65;;;2.83;;
75112;SDS011;63692;47.338;8.520;2023-12-20T10:23:19;5.25;;;2.97;;
75112;SDS011;63692;47.338;8.520;2023-12-20T10:25:52;4.30;;;2.63;;
75112;SDS011;63692;47.338;8.520;2023-12-20T10:28:21;5.45;;;3.20;;
75112;SDS011;63692;47.338;8.520;2023-12-20T10:30:50;5.90;;;2.90;;
75112;SDS011;63692;47.338;8.520;2023-12-20T10:33:28;5.03;;;3.40;;
75112;SDS011;63692;47.338;8.520;2023-12-20T10:35:57;4.95;;;2.90;;
75112;SDS011;63692;47.338;8.520;2023-12-20T10:38:23;4.88;;;3.40;;
75112;SDS011;63692;47.338;8.520;2023-12-20T10:40:49;5.82;;;3.13;;
75112;SDS011;63692;47.338;8.520;2023-12-20T10:43:19;5.85;;;3.30;;
75112;SDS011;63692;47.338;8.520;2023-12-20T10:45:46;5.85;;;3.70;;
75112;SDS011;63692;47.338;8.520;2023-12-20T10:48:11;5.47;;;3.47;;
75112;SDS011;63692;47.338;8.520;2023-12-20T10:50:37;5.97;;;3.83;;
75112;SDS011;63692;47.338;8.520;2023-12-20T10:53:06;7.20;;;3.70;;
75112;SDS011;63692;47.338;8.520;2023-12-20T10:55:32;5.70;;;3.67;;
75112;SDS011;63692;47.338;8.520;2023-12-20T10:58:02;6.55;;;3.40;;
75112;SDS011;63692;47.338;8.520;2023-12-20T11:00:33;6.03;;;3.58;;
75112;SDS011;63692;47.338;8.520;2023-12-20T11:03:05;7.45;;;3.58;;
75112;SDS011;63692;47.338;8.520;2023-12-20T11:05:49;5.25;;;3.63;;
75112;SDS011;63692;47.338;8.520;2023-12-20T11:08:28;4.55;;;3.00;;
75112;SDS011;63692;47.338;8.520;2023-12-20T11:16:48;6.25;;;3.88;;
75112;SDS011;63692;47.338;8.520;2023-12-20T11:19:14;7.25;;;4.25;;
75112;SDS011;63692;47.338;8.520;2023-12-20T11:21:40;7.45;;;3.60;;
75112;SDS011;63692;47.338;8.520;2023-12-20T11:24:06;7.72;;;3.78;;
75112;SDS011;63692;47.338;8.520;2023-12-20T11:26:32;6.45;;;3.47;;
75112;SDS011;63692;47.338;8.520;2023-12-20T11:32:27;6.57;;;3.78;;
75112;SDS011;63692;47.338;8.520;2023-12-20T11:34:50;6.70;;;3.53;;
75112;SDS011;63692;47.338;8.520;2023-12-20T11:37:19;4.95;;;3.03;;
75112;SDS011;63692;47.338;8.520;2023-12-20T11:39:56;7.93;;;3.58;;
75112;SDS011;63692;47.338;8.520;2023-12-20T11:42:35;5.40;;;3.35;;
75112;SDS011;63692;47.338;8.520;2023-12-20T11:45:03;5.75;;;3.08;;
75112;SDS011;63692;47.338;8.520;2023-12-20T11:47:30;5.40;;;3.35;;
75112;SDS011;63692;47.338;8.520;2023-12-20T11:49:56;5.90;;;3.78;;
75112;SDS011;63692;47.338;8.520;2023-12-20T11:52:22;5.35;;;3.10;;
75112;SDS011;63692;47.338;8.520;2023-12-20T11:54:47;6.22;;;3.22;;
75112;SDS011;63692;47.338;8.520;2023-12-20T11:57:13;5.38;;;3.15;;
75112;SDS011;63692;47.338;8.520;2023-12-20T11:59:39;5.63;;;3.25;;
75112;SDS011;63692;47.338;8.520;2023-12-20T12:02:05;6.43;;;3.30;;
75112;SDS011;63692;47.338;8.520;2023-12-20T12:04:31;5.30;;;3.15;;
75112;SDS011;63692;47.338;8.520;2023-12-20T12:06:56;5.22;;;2.80;;
75112;SDS011;63692;47.338;8.520;2023-12-20T12:09:22;7.22;;;3.15;;
75112;SDS011;63692;47.338;8.520;2023-12-20T12:11:48;5.50;;;2.92;;
75112;SDS011;63692;47.338;8.520;2023-12-20T12:14:14;4.38;;;2.90;;
75112;SDS011;63692;47.338;8.520;2023-12-20T12:16:41;5.07;;;2.88;;
75112;SDS011;63692;47.338;8.520;2023-12-20T12:19:07;4.78;;;2.85;;
75112;SDS011;63692;47.338;8.520;2023-12-20T12:21:44;4.43;;;2.95;;
75112;SDS011;63692;47.338;8.520;2023-12-20T12:24:10;4.45;;;2.70;;
75112;SDS011;63692;47.338;8.520;2023-12-20T12:26:36;4.45;;;2.40;;
75112;SDS011;63692;47.338;8.520;2023-12-20T12:29:02;3.97;;;2.10;;
75112;SDS011;63692;47.338;8.520;2023-12-20T12:31:28;3.50;;;2.20;;
75112;SDS011;63692;47.338;8.520;2023-12-20T12:33:55;3.17;;;2.03;;
75112;SDS011;63692;47.338;8.520;2023-12-20T12:36:21;2.88;;;1.38;;
75112;SDS011;63692;47.338;8.520;2023-12-20T12:38:47;4.18;;;2.67;;
75112;SDS011;63692;47.338;8.520;2023-12-20T12:41:13;3.08;;;1.58;;
75112;SDS011;63692;47.338;8.520;2023-12-20T12:43:40;2.67;;;1.70;;
75112;SDS011;63692;47.338;8.520;2023-12-20T12:46:06;3.22;;;1.70;;
75112;SDS011;63692;47.338;8.520;2023-12-20T12:48:32;3.70;;;1.88;;
75112;SDS011;63692;47.338;8.520;2023-12-20T12:50:58;2.85;;;1.60;;
75112;SDS011;63692;47.338;8.520;2023-12-20T12:53:25;3.17;;;1.40;;
75112;SDS011;63692;47.338;8.520;2023-12-20T13:00:55;2.47;;;1.30;;
75112;SDS011;63692;47.338;8.520;2023-12-20T13:03:20;2.10;;;1.00;;
75112;SDS011;63692;47.338;8.520;2023-12-20T13:05:46;2.65;;;1.00;;
75112;SDS011;63692;47.338;8.520;2023-12-20T13:08:13;2.47;;;1.00;;
75112;SDS011;63692;47.338;8.520;2023-12-20T13:10:39;2.60;;;1.10;;
75112;SDS011;63692;47.338;8.520;2023-12-20T13:13:05;2.88;;;1.10;;
75112;SDS011;63692;47.338;8.520;2023-12-20T13:15:31;1.98;;;1.00;;
75112;SDS011;63692;47.338;8.520;2023-12-20T13:17:56;3.05;;;1.10;;
75112;SDS011;63692;47.338;8.520;2023-12-20T13:20:22;2.67;;;1.15;;
75112;SDS011;63692;47.338;8.520;2023-12-20T13:22:48;1.80;;;0.90;;
75112;SDS011;63692;47.338;8.520;2023-12-20T13:25:13;2.33;;;1.10;;
75112;SDS011;63692;47.338;8.520;2023-12-20T13:30:07;3.17;;;1.13;;
75112;SDS011;63692;47.338;8.520;2023-12-20T13:32:33;2.53;;;1.27;;
75112;SDS011;63692;47.338;8.520;2023-12-20T13:34:58;2.78;;;1.50;;
75112;SDS011;63692;47.338;8.520;2023-12-20T13:37:24;4.68;;;1.40;;
75112;SDS011;63692;47.338;8.520;2023-12-20T13:52:20;3.05;;;1.20;;
75112;SDS011;63692;47.338;8.520;2023-12-20T13:57:15;5.10;;;1.38;;
75112;SDS011;63692;47.338;8.520;2023-12-20T13:59:41;5.80;;;1.70;;
75112;SDS011;63692;47.338;8.520;2023-12-20T14:02:06;4.13;;;1.35;;
75112;SDS011;63692;47.338;8.520;2023-12-20T14:04:32;5.47;;;1.50;;
75112;SDS011;63692;47.338;8.520;2023-12-20T14:06:58;5.45;;;1.30;;
75112;SDS011;63692;47.338;8.520;2023-12-20T14:11:51;5.80;;;1.25;;
75112;SDS011;63692;47.338;8.520;2023-12-20T14:21:40;5.07;;;1.33;;
75112;SDS011;63692;47.338;8.520;2023-12-20T14:24:06;4.68;;;1.65;;
75112;SDS011;63692;47.338;8.520;2023-12-20T14:26:31;4.43;;;1.80;;
75112;SDS011;63692;47.338;8.520;2023-12-20T14:28:57;4.43;;;1.73;;
75112;SDS011;63692;47.338;8.520;2023-12-20T14:31:23;4.70;;;1.70;;
75112;SDS011;63692;47.338;8.520;2023-12-20T14:33:50;5.47;;;1.50;;
75112;SDS011;63692;47.338;8.520;2023-12-20T14:41:14;4.50;;;1.60;;
75112;SDS011;63692;47.338;8.520;2023-12-20T14:46:09;4.28;;;1.60;;
75112;SDS011;63692;47.338;8.520;2023-12-20T14:53:30;5.75;;;1.65;;
75112;SDS011;63692;47.338;8.520;2023-12-20T15:01:01;5.43;;;1.40;;
75112;SDS011;63692;47.338;8.520;2023-12-20T15:03:26;5.75;;;1.90;;
75112;SDS011;63692;47.338;8.520;2023-12-20T15:05:53;4.75;;;1.38;;
75112;SDS011;63692;47.338;8.520;2023-12-20T15:08:19;3.47;;;1.23;;
75112;SDS011;63692;47.338;8.520;2023-12-20T15:10:46;4.32;;;1.30;;
75112;SDS011;63692;47.338;8.520;2023-12-20T15:23:00;7.55;;;1.92;;
75112;SDS011;63692;47.338;8.520;2023-12-20T15:25:31;6.03;;;1.40;;
75112;SDS011;63692;47.338;8.520;2023-12-20T15:27:57;7.75;;;1.40;;
75112;SDS011;63692;47.338;8.520;2023-12-20T15:30:23;5.45;;;1.67;;
75112;SDS011;63692;47.338;8.520;2023-12-20T15:32:52;5.60;;;1.60;;
75112;SDS011;63692;47.338;8.520;2023-12-20T15:35:21;5.35;;;1.40;;
75112;SDS011;63692;47.338;8.520;2023-12-20T15:37:47;4.45;;;1.33;;
75112;SDS011;63692;47.338;8.520;2023-12-20T15:40:12;5.40;;;1.90;;
75112;SDS011;63692;47.338;8.520;2023-12-20T15:42:38;4.38;;;1.63;;
75112;SDS011;63692;47.338;8.520;2023-12-20T15:45:05;5.63;;;1.48;;
75112;SDS011;63692;47.338;8.520;2023-12-20T15:47:32;6.63;;;1.35;;
75112;SDS011;63692;47.338;8.520;2023-12-20T15:50:01;8.13;;;1.80;;
75112;SDS011;63692;47.338;8.520;2023-12-20T15:52:27;6.82;;;1.80;;
75112;SDS011;63692;47.338;8.520;2023-12-20T16:02:14;8.93;;;1.92;;
75112;SDS011;63692;47.338;8.520;2023-12-20T16:07:07;4.35;;;1.38;;
75112;SDS011;63692;47.338;8.520;2023-12-20T16:16:55;4.10;;;1.52;;
75112;SDS011;63692;47.338;8.520;2023-12-20T16:19:21;4.20;;;1.63;;
75112;SDS011;63692;47.338;8.520;2023-12-20T16:21:47;5.93;;;1.77;;
75112;SDS011;63692;47.338;8.520;2023-12-20T16:24:12;5.88;;;2.35;;
75112;SDS011;63692;47.338;8.520;2023-12-20T16:26:38;6.13;;;1.77;;
